createdAt,value
2022-08-17T00:00:42.715Z,78.23
2022-08-17T00:03:32.672Z,78.31
2022-08-17T00:06:13.166Z,78.43
2022-08-17T00:08:55.868Z,78.46
2022-08-17T00:11:32.333Z,79.05
2022-08-17T00:14:11.080Z,78.90
2022-08-17T00:16:56.304Z,78.97
2022-08-17T00:19:28.328Z,79.56
2022-08-17T00:22:32.814Z,79.38
2022-08-17T00:24:51.315Z,78.75
2022-08-17T00:27:21.755Z,79.07
2022-08-17T00:29:52.672Z,79.35
2022-08-17T00:33:11.823Z,79.53
2022-08-17T00:35:13.668Z,80.10
2022-08-17T00:37:42.497Z,79.92
2022-08-17T00:40:13.688Z,79.82
2022-08-17T00:42:45.134Z,79.95
2022-08-17T00:45:16.806Z,80.53
2022-08-17T00:47:45.903Z,80.65
2022-08-17T00:50:17.560Z,80.65
2022-08-17T00:52:53.651Z,80.34
2022-08-17T00:55:26.470Z,79.83
2022-08-17T00:58:00.876Z,79.98
2022-08-17T01:00:36.550Z,80.48
2022-08-17T01:03:15.297Z,80.34
2022-08-17T01:05:43.856Z,81.13
2022-08-17T01:08:17.143Z,81.23
2022-08-17T01:10:59.456Z,81.14
2022-08-17T01:13:39.777Z,81.62
2022-08-17T01:16:33.102Z,82.37
2022-08-17T01:19:26.987Z,82.56
2022-08-17T01:22:04.338Z,82.10
2022-08-17T01:24:34.282Z,81.71
2022-08-17T01:27:10.429Z,82.08
2022-08-17T01:29:44.048Z,82.11
2022-08-17T01:32:14.533Z,82.16
2022-08-17T01:34:45.519Z,81.72
2022-08-17T01:37:21.672Z,81.37
2022-08-17T01:39:56.209Z,81.43
2022-08-17T01:42:31.956Z,81.17
2022-08-17T01:45:11.758Z,81.71
2022-08-17T01:47:42.026Z,81.40
2022-08-17T01:50:16.264Z,80.95
2022-08-17T01:52:47.051Z,80.96
2022-08-17T01:55:24.573Z,80.16
2022-08-17T01:57:57.147Z,79.66
2022-08-17T02:00:27.939Z,78.99
2022-08-17T02:03:17.395Z,78.69
2022-08-17T02:05:50.265Z,78.24
2022-08-17T02:08:39.130Z,78.17
2022-08-17T02:11:19.361Z,78.12
2022-08-17T02:13:55.053Z,77.81
2022-08-17T02:16:39.453Z,78.04
2022-08-17T02:19:11.509Z,78.45
2022-08-17T02:21:42.358Z,78.76
2022-08-17T02:24:58.834Z,78.94
2022-08-17T02:27:07.997Z,78.71
2022-08-17T02:29:37.397Z,79.38
2022-08-17T02:32:06.152Z,79.72
2022-08-17T02:34:35.001Z,79.76
2022-08-17T02:37:03.645Z,79.84
2022-08-17T02:39:32.217Z,79.74
2022-08-17T02:42:04.998Z,79.55
2022-08-17T02:44:39.625Z,79.55
2022-08-17T02:47:12.719Z,79.02
2022-08-17T02:49:46.301Z,78.65
2022-08-17T02:52:43.508Z,78.57
2022-08-17T02:55:17.290Z,78.41
2022-08-17T02:57:46.487Z,78.48
2022-08-17T03:00:21.416Z,78.02
2022-08-17T03:02:50.950Z,78.11
2022-08-17T03:05:22.138Z,78.26
2022-08-17T03:07:51.360Z,78.46
2022-08-17T03:10:21.857Z,78.44
2022-08-17T03:12:53.078Z,78.54
2022-08-17T03:15:31.699Z,78.85
2022-08-17T03:18:03.778Z,78.96
2022-08-17T03:20:34.548Z,78.73
2022-08-17T03:23:04.030Z,79.14
2022-08-17T03:25:43.478Z,78.60
2022-08-17T03:28:12.878Z,78.00
2022-08-17T03:30:42.098Z,77.55
2022-08-17T03:33:11.204Z,77.35
2022-08-17T03:35:41.703Z,77.14
2022-08-17T03:38:12.025Z,76.91
2022-08-17T03:40:57.565Z,76.58
2022-08-17T03:43:31.882Z,76.48
2022-08-17T03:46:28.100Z,76.41
2022-08-17T03:49:26.183Z,76.13
2022-08-17T03:52:16.574Z,76.06
2022-08-17T03:55:05.814Z,75.12
2022-08-17T03:57:34.304Z,74.61
2022-08-17T04:00:04.806Z,74.73
2022-08-17T04:02:42.658Z,75.36
2022-08-17T04:05:12.220Z,75.66
2022-08-17T04:07:43.865Z,75.91
2022-08-17T04:10:13.558Z,76.50
2022-08-17T04:12:58.460Z,76.60
2022-08-17T04:15:27.346Z,76.84
2022-08-17T04:17:55.843Z,76.43
2022-08-17T04:20:26.517Z,76.79
2022-08-17T04:23:28.568Z,77.61
2022-08-17T04:25:57.720Z,77.63
2022-08-17T04:28:26.726Z,77.93
2022-08-17T04:30:56.754Z,78.12
2022-08-17T04:33:27.707Z,78.09
2022-08-17T04:36:03.205Z,76.85
2022-08-17T04:38:35.188Z,76.28
2022-08-17T04:41:23.930Z,75.85
2022-08-17T04:43:59.024Z,76.09
2022-08-17T04:46:33.785Z,76.19
2022-08-17T04:49:06.717Z,76.83
2022-08-17T04:51:39.030Z,77.23
2022-08-17T04:54:20.542Z,77.03
2022-08-17T04:56:49.486Z,76.13
2022-08-17T04:59:21.511Z,75.46
2022-08-17T05:01:52.132Z,73.38
2022-08-17T05:04:34.023Z,74.09
2022-08-17T05:07:05.262Z,71.61
2022-08-17T05:09:34.872Z,70.36
2022-08-17T05:12:04.973Z,71.10
2022-08-17T05:14:35.632Z,71.62
2022-08-17T05:17:11.021Z,71.66
2022-08-17T05:19:41.437Z,70.81
2022-08-17T05:22:10.855Z,70.25
2022-08-17T05:24:43.582Z,69.90
2022-08-17T05:27:23.474Z,69.74
2022-08-17T05:29:52.612Z,66.31
2022-08-17T05:32:39.284Z,62.85
2022-08-17T05:35:09.520Z,60.76
2022-08-17T05:37:39.567Z,57.90
2022-08-17T05:40:10.440Z,55.31
2022-08-17T05:42:39.415Z,56.76
2022-08-17T05:45:09.905Z,53.66
2022-08-17T05:47:42.859Z,52.32
2022-08-17T05:50:26.037Z,49.51
2022-08-17T05:53:16.181Z,48.50
2022-08-17T05:56:22.716Z,48.80
2022-08-17T05:59:11.814Z,47.74
2022-08-17T06:02:12.574Z,48.23
2022-08-17T06:04:44.612Z,49.01
2022-08-17T06:07:33.087Z,49.31
2022-08-17T06:10:14.881Z,50.05
2022-08-17T06:12:49.010Z,49.31
2022-08-17T06:15:35.996Z,49.47
2022-08-17T06:18:08.949Z,50.15
2022-08-17T06:20:50.644Z,50.00
2022-08-17T06:24:10.880Z,50.27
2022-08-17T06:26:43.472Z,50.42
2022-08-17T06:29:27.359Z,51.21
2022-08-17T06:31:59.418Z,50.12
2022-08-17T06:34:28.461Z,50.03
2022-08-17T06:37:21.289Z,50.63
2022-08-17T06:40:11.184Z,51.14
2022-08-17T06:43:05.769Z,50.66
2022-08-17T06:45:41.486Z,50.30
2022-08-17T06:48:31.494Z,51.16
2022-08-17T06:51:27.796Z,50.89
2022-08-17T06:54:07.163Z,51.68
2022-08-17T06:56:52.988Z,51.43
2022-08-17T06:59:47.163Z,50.92
2022-08-17T07:02:29.143Z,50.35
2022-08-17T07:05:17.786Z,50.55
2022-08-17T07:08:17.002Z,51.00
2022-08-17T07:10:56.816Z,50.04
2022-08-17T07:13:40.434Z,49.78
2022-08-17T07:16:36.738Z,48.85
2022-08-17T07:19:07.991Z,48.03
2022-08-17T07:22:04.837Z,48.10
2022-08-17T07:24:47.523Z,47.23
2022-08-17T07:27:21.036Z,45.76
2022-08-17T07:29:59.338Z,44.45
2022-08-17T07:32:41.721Z,42.47
2022-08-17T07:35:15.664Z,41.10
2022-08-17T07:38:25.457Z,40.39
2022-08-17T07:41:02.417Z,39.06
2022-08-17T07:43:40.581Z,37.47
2022-08-17T07:46:34.479Z,36.78
2022-08-17T07:49:08.802Z,35.24
2022-08-17T07:51:43.487Z,33.55
2022-08-17T07:54:26.242Z,33.26
2022-08-17T07:57:03.769Z,32.57
2022-08-17T07:59:36.805Z,30.94
2022-08-17T08:02:31.890Z,31.12
2022-08-17T08:05:29.972Z,31.21
2022-08-17T08:08:33.484Z,31.52
2022-08-17T08:11:12.496Z,31.04
2022-08-17T08:13:44.007Z,30.76
2022-08-17T08:16:29.865Z,30.75
2022-08-17T08:19:01.700Z,30.78
2022-08-17T08:21:57.736Z,30.70
2022-08-17T08:24:52.020Z,30.60
2022-08-17T08:27:30.515Z,30.30
2022-08-17T08:30:17.373Z,30.52
2022-08-17T08:33:17.444Z,30.01
2022-08-17T08:36:58.138Z,30.08
2022-08-17T08:39:52.063Z,30.76
2022-08-17T08:42:29.247Z,31.58
2022-08-17T08:45:22.727Z,32.16
2022-08-17T08:48:22.924Z,32.15
2022-08-17T08:51:06.312Z,32.58
2022-08-17T08:54:01.767Z,32.52
2022-08-17T08:57:22.300Z,32.34
2022-08-17T08:59:59.897Z,32.26
2022-08-17T09:02:55.864Z,32.91
2022-08-17T09:05:56.692Z,32.73
2022-08-17T09:08:41.358Z,32.75
2022-08-17T09:11:22.651Z,33.26
2022-08-17T09:14:21.508Z,33.24
2022-08-17T09:17:15.239Z,32.80
2022-08-17T09:19:51.686Z,32.75
2022-08-17T09:22:37.508Z,31.23
2022-08-17T09:25:28.620Z,30.94
2022-08-17T09:28:05.871Z,29.33
2022-08-17T09:30:47.692Z,27.80
2022-08-17T09:33:23.822Z,26.35
2022-08-17T09:35:59.379Z,25.72
2022-08-17T09:39:03.624Z,26.23
2022-08-17T09:41:37.716Z,26.58
2022-08-17T09:44:32.454Z,25.49
2022-08-17T09:47:47.615Z,24.98
2022-08-17T09:50:55.424Z,23.62
2022-08-17T09:53:27.118Z,23.24
2022-08-17T09:56:14.754Z,23.20
2022-08-17T09:58:56.775Z,22.58
2022-08-17T10:01:36.980Z,22.14
2022-08-17T10:04:29.337Z,22.14
2022-08-17T10:07:15.064Z,21.69
2022-08-17T10:09:51.222Z,21.74
2022-08-17T10:12:29.767Z,21.22
2022-08-17T10:15:09.533Z,22.07
2022-08-17T10:18:08.695Z,21.89
2022-08-17T10:21:15.568Z,21.14
2022-08-17T10:24:24.819Z,20.99
2022-08-17T10:26:58.494Z,20.56
2022-08-17T10:29:49.005Z,20.46
2022-08-17T10:32:35.893Z,21.01
2022-08-17T10:35:26.192Z,20.83
2022-08-17T10:38:14.969Z,21.35
2022-08-17T10:40:55.001Z,20.99
2022-08-17T10:44:37.603Z,20.20
2022-08-17T10:47:11.888Z,20.33
2022-08-17T10:49:48.187Z,19.27
2022-08-17T10:52:20.171Z,19.08
2022-08-17T10:54:51.852Z,19.05
2022-08-17T10:57:29.967Z,19.37
2022-08-17T11:00:18.472Z,18.96
2022-08-17T11:02:53.747Z,20.04
2022-08-17T11:05:54.249Z,20.85
2022-08-17T11:08:53.940Z,21.16
2022-08-17T11:11:36.787Z,21.90
2022-08-17T11:14:24.259Z,22.96
2022-08-17T11:17:12.432Z,22.71
2022-08-17T11:20:17.056Z,22.96
2022-08-17T11:22:49.113Z,23.14
2022-08-17T11:25:32.288Z,23.91
2022-08-17T11:28:24.116Z,25.26
2022-08-17T11:30:57.647Z,26.27
2022-08-17T11:33:29.543Z,26.01
2022-08-17T11:36:39.141Z,27.04
2022-08-17T11:39:13.851Z,27.90
2022-08-17T11:41:58.612Z,28.32
2022-08-17T11:45:08.341Z,29.11
2022-08-17T11:48:29.188Z,29.19
2022-08-17T11:51:36.353Z,30.09
2022-08-17T11:54:34.546Z,30.24
2022-08-17T11:57:27.424Z,30.12
2022-08-17T12:00:12.029Z,29.84
2022-08-17T12:02:48.317Z,30.39
2022-08-17T12:05:17.206Z,30.61
2022-08-17T12:08:07.416Z,31.72
2022-08-17T12:10:49.685Z,32.80
2022-08-17T12:13:19.658Z,33.85
2022-08-17T12:15:53.003Z,34.07
2022-08-17T12:18:36.061Z,34.11
2022-08-17T12:21:22.443Z,33.56
2022-08-17T12:23:56.106Z,33.81
2022-08-17T12:26:32.143Z,33.89
2022-08-17T12:29:06.800Z,34.69
2022-08-17T12:31:46.194Z,35.43
2022-08-17T12:34:26.743Z,36.60
2022-08-17T12:37:05.216Z,36.31
2022-08-17T12:39:34.178Z,35.91
2022-08-17T12:42:06.061Z,36.18
2022-08-17T12:44:46.168Z,36.54
2022-08-17T12:47:22.726Z,36.53
2022-08-17T12:49:55.541Z,36.49
2022-08-17T12:52:33.336Z,36.81
2022-08-17T12:55:18.311Z,36.68
2022-08-17T12:57:59.942Z,36.15
2022-08-17T13:00:38.361Z,36.49
2022-08-17T13:03:12.738Z,36.49
2022-08-17T13:05:59.721Z,36.81
2022-08-17T13:08:35.450Z,37.50
2022-08-17T13:11:09.714Z,38.08
2022-08-17T13:13:45.003Z,38.68
2022-08-17T13:16:14.501Z,39.34
2022-08-17T13:18:52.042Z,39.78
2022-08-17T13:21:24.542Z,39.98
2022-08-17T13:24:17.856Z,40.26
2022-08-17T13:26:52.505Z,39.64
2022-08-17T13:29:33.735Z,39.91
2022-08-17T13:32:13.000Z,39.86
2022-08-17T13:35:13.475Z,39.86
2022-08-17T13:37:36.151Z,40.57
2022-08-17T13:40:11.035Z,40.79
2022-08-17T13:42:51.904Z,40.78
2022-08-17T13:45:36.114Z,40.56
2022-08-17T13:48:12.382Z,40.39
2022-08-17T13:50:58.169Z,39.83
2022-08-17T13:53:32.868Z,39.62
2022-08-17T13:56:37.385Z,39.93
2022-08-17T13:59:53.443Z,39.93
2022-08-17T14:02:21.214Z,39.90
2022-08-17T14:04:51.623Z,40.34
2022-08-17T14:07:33.967Z,40.25
2022-08-17T14:10:06.404Z,40.09
2022-08-17T14:12:38.384Z,40.03
2022-08-17T14:15:08.497Z,39.74
2022-08-17T14:17:39.134Z,39.47
2022-08-17T14:20:12.098Z,39.36
2022-08-17T14:22:45.422Z,39.71
2022-08-17T14:25:21.130Z,40.40
2022-08-17T14:27:54.350Z,41.16
2022-08-17T14:30:26.702Z,40.60
2022-08-17T14:32:59.461Z,40.52
2022-08-17T14:35:29.608Z,40.69
2022-08-17T14:37:59.786Z,40.78
2022-08-17T14:40:31.833Z,40.75
2022-08-17T14:43:01.609Z,41.19
2022-08-17T14:45:34.680Z,41.63
2022-08-17T14:48:08.175Z,41.74
2022-08-17T14:50:42.204Z,41.85
2022-08-17T14:53:13.891Z,41.81
2022-08-17T14:55:46.943Z,42.07
2022-08-17T14:58:19.696Z,42.27
2022-08-17T15:00:51.085Z,41.93
2022-08-17T15:03:22.999Z,41.03
2022-08-17T15:05:52.581Z,41.44
2022-08-17T15:08:22.414Z,41.25
2022-08-17T15:10:54.363Z,41.50
2022-08-17T15:13:26.514Z,41.68
2022-08-17T15:15:55.442Z,41.29
2022-08-17T15:18:25.364Z,41.71
2022-08-17T15:20:53.993Z,41.65
2022-08-17T15:23:26.465Z,41.29
2022-08-17T15:25:55.404Z,41.84
2022-08-17T15:28:26.195Z,41.80
2022-08-17T15:30:56.912Z,42.13
2022-08-17T15:33:32.955Z,42.21
2022-08-17T15:36:06.708Z,42.21
2022-08-17T15:38:39.442Z,42.15
2022-08-17T15:41:13.863Z,42.58
2022-08-17T15:43:44.969Z,42.68
2022-08-17T15:46:23.238Z,42.38
2022-08-17T15:48:57.549Z,42.02
2022-08-17T15:51:30.955Z,42.45
2022-08-17T15:54:31.711Z,43.48
2022-08-17T15:57:04.650Z,44.57
2022-08-17T15:59:35.009Z,45.19
2022-08-17T16:03:13.968Z,46.09
2022-08-17T16:05:12.759Z,47.08
2022-08-17T16:07:43.620Z,47.45
2022-08-17T16:10:16.744Z,48.35
2022-08-17T16:12:50.609Z,48.65
2022-08-17T16:15:19.478Z,48.97
2022-08-17T16:17:48.022Z,49.92
2022-08-17T16:20:20.281Z,50.48
2022-08-17T16:22:55.478Z,50.69
2022-08-17T16:25:52.707Z,51.53
2022-08-17T16:28:19.329Z,52.69
2022-08-17T16:30:49.709Z,52.45
2022-08-17T16:33:19.014Z,52.21
2022-08-17T16:35:47.608Z,52.39
2022-08-17T16:38:17.910Z,52.31
2022-08-17T16:40:47.483Z,52.20
2022-08-17T16:43:17.466Z,52.59
2022-08-17T16:45:51.870Z,52.56
2022-08-17T16:48:20.831Z,52.59
2022-08-17T16:51:03.476Z,53.24
2022-08-17T16:53:37.521Z,53.33
2022-08-17T16:56:09.467Z,53.68
2022-08-17T16:58:39.602Z,53.86
2022-08-17T17:01:09.114Z,54.20
2022-08-17T17:03:40.966Z,54.84
2022-08-17T17:06:37.774Z,55.18
2022-08-17T17:09:30.396Z,55.31
2022-08-17T17:12:03.083Z,55.89
2022-08-17T17:14:46.778Z,56.90
2022-08-17T17:17:28.680Z,57.57
2022-08-17T17:20:17.486Z,57.52
2022-08-17T17:22:49.805Z,58.59
2022-08-17T17:25:30.085Z,58.72
2022-08-17T17:28:15.400Z,58.34
2022-08-17T17:30:50.475Z,57.97
2022-08-17T17:33:29.493Z,58.52
2022-08-17T17:36:27.431Z,59.58
2022-08-17T17:39:05.664Z,59.46
2022-08-17T17:41:44.925Z,60.36
2022-08-17T17:44:17.953Z,60.65
2022-08-17T17:46:56.287Z,61.06
2022-08-17T17:49:30.400Z,62.04
2022-08-17T17:52:24.451Z,62.60
2022-08-17T17:55:20.670Z,62.99
2022-08-17T17:58:02.841Z,63.13
2022-08-17T18:00:55.230Z,62.82
2022-08-17T18:03:51.462Z,63.14
2022-08-17T18:06:27.378Z,63.83
2022-08-17T18:09:33.795Z,64.35
2022-08-17T18:12:19.935Z,64.74
2022-08-17T18:15:09.969Z,64.91
2022-08-17T18:17:38.523Z,65.00
2022-08-17T18:20:08.270Z,65.92
2022-08-17T18:22:40.735Z,65.72
2022-08-17T18:25:44.114Z,66.43
2022-08-17T18:28:27.558Z,66.39
2022-08-17T18:31:13.676Z,66.70
2022-08-17T18:33:46.254Z,66.99
2022-08-17T18:36:32.222Z,66.73
2022-08-17T18:39:23.629Z,67.33
2022-08-17T18:41:54.958Z,67.33
2022-08-17T18:44:29.579Z,67.92
2022-08-17T18:47:12.796Z,68.04
2022-08-17T18:49:43.966Z,67.77
2022-08-17T18:52:17.476Z,67.89
2022-08-17T18:55:15.326Z,67.80
2022-08-17T18:57:48.346Z,68.65
2022-08-17T19:00:21.356Z,68.01
2022-08-17T19:03:01.243Z,68.43
2022-08-17T19:05:37.965Z,68.47
2022-08-17T19:08:26.344Z,68.29
2022-08-17T19:11:03.163Z,68.26
2022-08-17T19:13:37.627Z,68.51
2022-08-17T19:16:27.991Z,68.36
2022-08-17T19:19:19.849Z,68.38
2022-08-17T19:21:55.127Z,68.57
2022-08-17T19:24:27.449Z,68.34
2022-08-17T19:27:19.614Z,68.42
2022-08-17T19:30:08.372Z,68.63
2022-08-17T19:32:38.267Z,68.35
2022-08-17T19:35:13.705Z,68.14
2022-08-17T19:38:04.401Z,68.35
2022-08-17T19:40:54.050Z,68.27
2022-08-17T19:44:07.743Z,68.22
2022-08-17T19:47:30.467Z,69.00
2022-08-17T19:50:18.988Z,68.89
2022-08-17T19:53:02.259Z,68.74
2022-08-17T19:55:49.549Z,68.96
2022-08-17T19:58:45.842Z,69.04
2022-08-17T20:01:38.365Z,69.21
2022-08-17T20:04:32.292Z,69.36
2022-08-17T20:07:10.787Z,69.22
2022-08-17T20:09:47.502Z,69.22
2022-08-17T20:12:29.854Z,70.06
2022-08-17T20:15:18.549Z,70.50
2022-08-17T20:17:48.826Z,71.19
2022-08-17T20:20:43.972Z,71.26
2022-08-17T20:24:00.252Z,71.22
2022-08-17T20:26:58.704Z,71.20
2022-08-17T20:30:13.017Z,70.38
2022-08-17T20:33:02.513Z,70.26
2022-08-17T20:35:37.264Z,69.73
2022-08-17T20:38:35.941Z,69.74
2022-08-17T20:41:04.643Z,69.57
2022-08-17T20:43:35.853Z,69.78
2022-08-17T20:46:16.606Z,69.71
2022-08-17T20:48:51.473Z,69.74
2022-08-17T20:51:27.404Z,69.72
2022-08-17T20:54:04.543Z,69.81
2022-08-17T20:56:45.153Z,69.36
2022-08-17T20:59:26.046Z,69.32
2022-08-17T21:02:18.573Z,69.13
2022-08-17T21:04:54.701Z,68.88
2022-08-17T21:07:42.945Z,68.89
2022-08-17T21:10:24.257Z,68.94
2022-08-17T21:13:00.310Z,69.00
2022-08-17T21:15:44.017Z,68.72
2022-08-17T21:18:34.804Z,68.83
2022-08-17T21:21:26.632Z,69.43
2022-08-17T21:24:26.197Z,69.43
2022-08-17T21:27:21.629Z,69.64
2022-08-17T21:30:15.147Z,69.71
2022-08-17T21:33:05.034Z,69.96
2022-08-17T21:35:58.660Z,70.22
2022-08-17T21:38:56.979Z,70.59
2022-08-17T21:41:34.239Z,70.48
2022-08-17T21:44:18.388Z,70.81
2022-08-17T21:46:50.363Z,70.88
2022-08-17T21:49:25.651Z,70.91
2022-08-17T21:51:56.962Z,71.47
2022-08-17T21:54:39.173Z,71.41
2022-08-17T21:57:18.331Z,71.73
2022-08-17T21:59:54.172Z,72.06
2022-08-17T22:02:28.610Z,72.10
2022-08-17T22:05:13.182Z,72.30
2022-08-17T22:07:51.002Z,72.60
2022-08-17T22:10:38.244Z,72.54
2022-08-17T22:13:06.538Z,72.57
2022-08-17T22:16:27.802Z,72.63
2022-08-17T22:18:59.168Z,73.17
2022-08-17T22:21:27.748Z,73.31
2022-08-17T22:24:06.128Z,73.52
2022-08-17T22:27:14.154Z,73.75
2022-08-17T22:29:57.467Z,73.84
2022-08-17T22:32:37.740Z,73.88
2022-08-17T22:35:41.327Z,73.96
2022-08-17T22:38:19.064Z,73.87
2022-08-17T22:40:55.190Z,74.20
2022-08-17T22:43:28.828Z,74.61
2022-08-17T22:46:00.526Z,75.05
2022-08-17T22:48:30.613Z,75.24
2022-08-17T22:51:12.429Z,75.43
2022-08-17T22:54:30.434Z,75.83
2022-08-17T22:57:21.502Z,76.28
2022-08-17T22:59:56.620Z,76.75
2022-08-17T23:02:26.652Z,76.86
2022-08-17T23:05:16.881Z,76.65
2022-08-17T23:07:47.589Z,76.61
2022-08-17T23:10:16.502Z,76.64
2022-08-17T23:12:49.188Z,77.21
2022-08-17T23:15:20.872Z,76.61
2022-08-17T23:17:50.566Z,77.00
2022-08-17T23:20:20.553Z,77.24
2022-08-17T23:22:51.911Z,77.34
2022-08-17T23:25:29.313Z,77.21
2022-08-17T23:27:59.444Z,77.66
2022-08-17T23:30:31.387Z,77.41
2022-08-17T23:33:02.787Z,76.82
2022-08-17T23:35:40.444Z,77.21
2022-08-17T23:38:13.233Z,76.85
2022-08-17T23:40:43.980Z,76.76
2022-08-17T23:43:23.777Z,76.59
2022-08-17T23:45:56.220Z,76.30
2022-08-17T23:48:35.325Z,75.98
2022-08-17T23:51:13.707Z,76.34
2022-08-17T23:53:48.554Z,76.45
2022-08-17T23:56:23.674Z,76.60
2022-08-17T23:58:55.535Z,76.21
